createdAt,value
2023-01-08T00:02:29.997Z,90.58
2023-01-08T00:05:01.795Z,90.96
2023-01-08T00:07:33.477Z,91.14
2023-01-08T00:10:03.664Z,91.13
2023-01-08T00:12:35.593Z,91.17
2023-01-08T00:15:08.734Z,90.89
2023-01-08T00:17:40.373Z,90.94
2023-01-08T00:20:12.951Z,91.26
2023-01-08T00:22:44.962Z,91.39
2023-01-08T00:25:16.856Z,91.51
2023-01-08T00:27:48.794Z,91.37
2023-01-08T00:30:20.646Z,91.29
2023-01-08T00:32:52.379Z,91.51
2023-01-08T00:35:24.244Z,91.26
2023-01-08T00:37:54.659Z,90.94
2023-01-08T00:40:26.272Z,91.54
2023-01-08T00:42:56.404Z,91.75
2023-01-08T00:45:28.034Z,91.85
2023-01-08T00:47:58.302Z,91.65
2023-01-08T00:50:30.001Z,92.02
2023-01-08T00:53:00.794Z,91.96
2023-01-08T00:55:32.661Z,92.22
2023-01-08T00:58:04.414Z,92.00
2023-01-08T01:00:36.066Z,91.76
2023-01-08T01:03:06.299Z,91.61
2023-01-08T01:05:38.394Z,91.89
2023-01-08T01:08:10.053Z,92.27
2023-01-08T01:10:41.058Z,92.31
2023-01-08T01:13:13.331Z,92.09
2023-01-08T01:15:45.000Z,92.07
2023-01-08T01:18:16.754Z,91.65
2023-01-08T01:20:47.330Z,91.80
2023-01-08T01:23:19.022Z,92.09
2023-01-08T01:25:50.716Z,92.07
2023-01-08T01:28:23.228Z,91.59
2023-01-08T01:30:58.731Z,91.94
2023-01-08T01:33:30.410Z,91.83
2023-01-08T01:36:05.937Z,92.11
2023-01-08T01:38:37.620Z,92.24
2023-01-08T01:41:10.956Z,91.91
2023-01-08T01:43:44.641Z,91.64
2023-01-08T01:46:24.850Z,91.17
2023-01-08T01:49:01.021Z,91.36
2023-01-08T01:51:37.280Z,91.60
2023-01-08T01:54:12.519Z,91.69
2023-01-08T01:56:46.428Z,91.48
2023-01-08T01:59:18.664Z,91.40
2023-01-08T02:01:50.850Z,91.48
2023-01-08T02:04:22.807Z,91.33
2023-01-08T02:07:02.869Z,91.37
2023-01-08T02:09:44.260Z,91.38
2023-01-08T02:12:22.160Z,91.43
2023-01-08T02:15:06.649Z,91.43
2023-01-08T02:17:50.645Z,91.30
2023-01-08T02:20:26.467Z,91.40
2023-01-08T02:23:15.435Z,91.43
2023-01-08T02:26:11.749Z,91.21
2023-01-08T02:28:48.050Z,91.41
2023-01-08T02:31:21.512Z,91.63
2023-01-08T02:33:53.566Z,91.50
2023-01-08T02:36:35.112Z,91.21
2023-01-08T02:39:21.992Z,90.91
2023-01-08T02:42:10.646Z,90.57
2023-01-08T02:44:58.454Z,90.71
2023-01-08T02:47:34.216Z,90.55
2023-01-08T02:50:13.807Z,90.56
2023-01-08T02:52:53.775Z,90.65
2023-01-08T02:55:27.941Z,90.45
2023-01-08T02:58:03.134Z,90.21
2023-01-08T03:00:36.056Z,90.52
2023-01-08T03:03:13.619Z,90.39
2023-01-08T03:05:49.428Z,90.30
2023-01-08T03:08:22.351Z,90.30
2023-01-08T03:10:57.440Z,90.24
2023-01-08T03:13:35.981Z,90.50
2023-01-08T03:16:15.227Z,90.41
2023-01-08T03:18:52.404Z,90.49
2023-01-08T03:21:24.724Z,90.56
2023-01-08T03:23:58.024Z,90.82
2023-01-08T03:26:31.634Z,90.92
2023-01-08T03:29:05.963Z,90.54
2023-01-08T03:31:37.829Z,90.61
2023-01-08T03:34:11.514Z,90.62
2023-01-08T03:36:47.498Z,90.98
2023-01-08T03:39:23.996Z,90.96
2023-01-08T03:41:59.721Z,91.20
2023-01-08T03:44:31.527Z,91.27
2023-01-08T03:47:03.862Z,90.92
2023-01-08T03:49:36.586Z,90.59
2023-01-08T03:52:08.430Z,90.58
2023-01-08T03:54:40.231Z,90.59
2023-01-08T03:57:11.887Z,90.59
2023-01-08T03:59:42.066Z,90.32
2023-01-08T04:02:14.318Z,90.49
2023-01-08T04:04:46.188Z,90.73
2023-01-08T04:07:18.032Z,90.59
2023-01-08T04:09:49.654Z,89.96
2023-01-08T04:12:19.776Z,89.60
2023-01-08T04:14:51.387Z,89.69
2023-01-08T04:17:21.511Z,89.63
2023-01-08T04:19:53.165Z,89.75
2023-01-08T04:22:23.287Z,89.57
2023-01-08T04:24:55.069Z,89.87
2023-01-08T04:27:26.682Z,90.01
2023-01-08T04:29:56.798Z,90.07
2023-01-08T04:32:28.465Z,90.13
2023-01-08T04:34:58.628Z,89.95
2023-01-08T04:37:30.255Z,89.96
2023-01-08T04:40:00.356Z,90.14
2023-01-08T04:42:31.947Z,90.25
2023-01-08T04:45:02.079Z,90.11
2023-01-08T04:47:33.882Z,89.96
2023-01-08T04:50:06.005Z,89.27
2023-01-08T04:52:37.732Z,88.96
2023-01-08T04:55:10.334Z,88.95
2023-01-08T04:57:42.022Z,88.89
2023-01-08T05:00:13.373Z,88.86
2023-01-08T05:02:45.314Z,89.45
2023-01-08T05:05:17.108Z,89.76
2023-01-08T05:07:47.216Z,89.75
2023-01-08T05:10:18.864Z,89.94
2023-01-08T05:12:48.990Z,89.24
2023-01-08T05:15:20.650Z,88.92
2023-01-08T05:18:06.292Z,88.94
2023-01-08T05:20:48.397Z,88.84
2023-01-08T05:23:32.730Z,89.09
2023-01-08T05:26:11.425Z,89.78
2023-01-08T05:28:54.867Z,89.83
2023-01-08T05:31:38.160Z,89.66
2023-01-08T05:34:21.507Z,89.63
2023-01-08T05:36:54.937Z,89.43
2023-01-08T05:39:25.058Z,89.17
2023-01-08T05:41:56.727Z,89.07
2023-01-08T05:44:26.893Z,89.00
2023-01-08T05:46:58.895Z,89.49
2023-01-08T05:49:30.676Z,89.62
2023-01-08T05:52:02.305Z,89.54
2023-01-08T05:54:32.403Z,89.67
2023-01-08T05:57:04.174Z,89.88
2023-01-08T05:59:35.817Z,89.81
2023-01-08T06:02:05.916Z,89.55
2023-01-08T06:04:38.057Z,89.36
2023-01-08T06:07:09.717Z,88.96
2023-01-08T06:09:39.858Z,88.57
2023-01-08T06:12:11.537Z,88.37
2023-01-08T06:14:43.279Z,88.50
2023-01-08T06:17:14.906Z,89.13
2023-01-08T06:19:48.227Z,89.58
2023-01-08T06:22:19.863Z,89.70
2023-01-08T06:24:50.003Z,89.91
2023-01-08T06:27:21.636Z,89.77
2023-01-08T06:29:51.787Z,89.81
2023-01-08T06:32:23.431Z,89.71
2023-01-08T06:34:53.591Z,89.32
2023-01-08T06:37:25.432Z,89.48
2023-01-08T06:39:55.566Z,89.40
2023-01-08T06:42:27.346Z,89.30
2023-01-08T06:44:58.979Z,89.36
2023-01-08T06:47:29.086Z,88.83
2023-01-08T06:50:01.094Z,88.75
2023-01-08T06:52:32.712Z,88.83
2023-01-08T06:55:04.840Z,89.03
2023-01-08T06:57:36.542Z,89.19
2023-01-08T07:00:07.921Z,88.72
2023-01-08T07:02:39.891Z,88.57
2023-01-08T07:05:13.582Z,88.90
2023-01-08T07:07:45.199Z,89.08
2023-01-08T07:10:15.326Z,89.44
2023-01-08T07:12:46.967Z,89.58
2023-01-08T07:15:17.244Z,89.70
2023-01-08T07:17:48.888Z,89.21
2023-01-08T07:20:19.111Z,89.02
2023-01-08T07:22:50.786Z,89.16
2023-01-08T07:25:20.924Z,89.12
2023-01-08T07:27:53.067Z,88.80
2023-01-08T07:30:29.878Z,89.02
2023-01-08T07:33:02.696Z,88.68
2023-01-08T07:35:35.481Z,88.70
2023-01-08T07:38:07.516Z,88.96
2023-01-08T07:40:39.605Z,89.27
2023-01-08T07:43:12.576Z,89.43
2023-01-08T07:45:44.575Z,89.26
2023-01-08T07:48:16.621Z,88.85
2023-01-08T07:50:48.464Z,89.26
2023-01-08T07:53:20.163Z,89.73
2023-01-08T07:55:50.280Z,89.92
2023-01-08T07:58:22.318Z,90.30
2023-01-08T08:00:54.389Z,90.28
2023-01-08T08:03:26.860Z,90.11
2023-01-08T08:06:00.599Z,90.34
2023-01-08T08:08:32.253Z,90.56
2023-01-08T08:11:02.848Z,90.48
2023-01-08T08:13:34.623Z,90.75
2023-01-08T08:16:10.038Z,90.82
2023-01-08T08:18:42.607Z,90.92
2023-01-08T08:21:14.274Z,90.86
2023-01-08T08:23:44.444Z,91.08
2023-01-08T08:26:16.124Z,91.07
2023-01-08T08:28:47.985Z,91.16
2023-01-08T08:31:19.835Z,91.19
2023-01-08T08:33:51.604Z,91.38
2023-01-08T08:36:21.804Z,91.05
2023-01-08T08:38:53.491Z,91.43
2023-01-08T08:41:23.975Z,91.26
2023-01-08T08:43:55.684Z,91.05
2023-01-08T08:46:27.398Z,91.12
2023-01-08T08:48:59.135Z,91.09
2023-01-08T08:51:30.904Z,90.84
2023-01-08T08:54:02.962Z,91.00
2023-01-08T08:56:34.656Z,90.88
2023-01-08T08:59:06.486Z,90.22
2023-01-08T09:01:38.254Z,90.28
2023-01-08T09:04:09.982Z,89.98
2023-01-08T09:06:40.101Z,89.74
2023-01-08T09:09:11.838Z,90.22
2023-01-08T09:11:43.810Z,90.40
2023-01-08T09:14:15.827Z,90.17
2023-01-08T09:16:47.448Z,90.10
2023-01-08T09:19:17.663Z,90.35
2023-01-08T09:21:50.422Z,90.08
2023-01-08T09:24:22.051Z,89.92
2023-01-08T09:26:55.542Z,89.82
2023-01-08T09:29:27.467Z,89.84
2023-01-08T09:32:00.491Z,89.64
2023-01-08T09:34:32.596Z,89.74
2023-01-08T09:37:04.644Z,89.59
2023-01-08T09:39:37.144Z,89.19
2023-01-08T09:42:09.463Z,89.05
2023-01-08T09:44:44.174Z,89.05
2023-01-08T09:47:26.251Z,89.01
2023-01-08T09:50:01.314Z,88.88
2023-01-08T09:52:34.270Z,89.24
2023-01-08T09:55:11.042Z,89.10
2023-01-08T09:57:43.071Z,88.93
2023-01-08T10:00:22.188Z,88.58
2023-01-08T10:02:55.865Z,88.87
2023-01-08T10:05:29.031Z,88.74
2023-01-08T10:08:00.721Z,88.53
2023-01-08T10:10:31.785Z,88.69
2023-01-08T10:13:03.508Z,88.69
2023-01-08T10:15:35.334Z,88.66
2023-01-08T10:18:12.088Z,88.46
2023-01-08T10:20:43.769Z,88.28
2023-01-08T10:23:17.011Z,88.33
2023-01-08T10:25:54.587Z,88.34
2023-01-08T10:28:28.083Z,88.10
2023-01-08T10:31:07.148Z,87.92
2023-01-08T10:33:44.544Z,87.78
2023-01-08T10:36:19.265Z,87.88
2023-01-08T10:38:56.764Z,87.68
2023-01-08T10:41:29.339Z,87.40
2023-01-08T10:44:04.442Z,87.22
2023-01-08T10:46:43.027Z,86.91
2023-01-08T10:49:21.216Z,86.62
2023-01-08T10:51:55.606Z,86.20
2023-01-08T10:54:35.532Z,85.93
2023-01-08T10:57:23.097Z,85.88
2023-01-08T10:59:54.998Z,86.37
2023-01-08T11:02:39.632Z,86.30
2023-01-08T11:05:12.499Z,85.83
2023-01-08T11:07:44.512Z,85.49
2023-01-08T11:10:26.321Z,85.64
2023-01-08T11:13:00.148Z,85.82
2023-01-08T11:15:38.002Z,85.44
2023-01-08T11:18:22.887Z,85.10
2023-01-08T11:21:07.050Z,85.08
2023-01-08T11:23:38.925Z,84.84
2023-01-08T11:26:15.977Z,84.50
2023-01-08T11:28:56.016Z,84.38
2023-01-08T11:31:35.941Z,84.12
2023-01-08T11:34:16.573Z,84.04
2023-01-08T11:36:53.970Z,83.86
2023-01-08T11:39:26.317Z,84.14
2023-01-08T11:42:21.638Z,84.43
2023-01-08T11:45:12.544Z,83.99
2023-01-08T11:48:10.122Z,83.64
2023-01-08T11:50:51.175Z,83.50
2023-01-08T11:53:28.878Z,83.85
2023-01-08T11:56:14.619Z,83.80
2023-01-08T11:59:03.110Z,83.29
2023-01-08T12:01:43.832Z,83.24
2023-01-08T12:04:42.201Z,82.57
2023-01-08T12:07:20.226Z,82.53
2023-01-08T12:09:59.859Z,82.57
2023-01-08T12:12:49.421Z,81.91
2023-01-08T12:15:29.340Z,81.31
2023-01-08T12:18:18.415Z,81.25
2023-01-08T12:20:57.293Z,81.43
2023-01-08T12:23:40.594Z,81.17
2023-01-08T12:26:27.462Z,81.24
2023-01-08T12:29:27.169Z,81.11
2023-01-08T12:32:13.540Z,80.96
2023-01-08T12:34:55.434Z,80.93
2023-01-08T12:37:32.997Z,80.67
2023-01-08T12:40:14.774Z,80.56
2023-01-08T12:43:00.050Z,80.26
2023-01-08T12:45:36.270Z,80.27
2023-01-08T12:48:12.348Z,80.12
2023-01-08T12:50:54.379Z,80.47
2023-01-08T12:53:38.145Z,80.45
2023-01-08T12:56:17.596Z,80.73
2023-01-08T12:59:08.075Z,80.38
2023-01-08T13:01:46.975Z,80.38
2023-01-08T13:04:19.814Z,80.36
2023-01-08T13:07:00.400Z,80.28
2023-01-08T13:09:33.797Z,80.49
2023-01-08T13:12:05.836Z,80.47
2023-01-08T13:14:48.042Z,80.47
2023-01-08T13:17:24.844Z,80.36
2023-01-08T13:20:00.669Z,80.35
2023-01-08T13:22:33.870Z,80.57
2023-01-08T13:28:43.417Z,80.22
2023-01-08T13:31:27.556Z,80.18
2023-01-08T13:33:56.268Z,80.26
2023-01-08T13:36:26.252Z,80.27
2023-01-08T13:39:20.808Z,80.12
2023-01-08T13:42:00.630Z,80.25
2023-01-08T13:44:33.632Z,80.59
2023-01-08T13:47:05.947Z,80.77
2023-01-08T13:49:40.595Z,81.43
2023-01-08T13:52:34.239Z,81.32
2023-01-08T13:55:05.423Z,81.10
2023-01-08T13:57:40.163Z,81.08
2023-01-08T14:00:17.135Z,80.98
2023-01-08T14:02:49.559Z,81.28
2023-01-08T14:05:31.138Z,81.29
2023-01-08T14:07:59.297Z,81.49
2023-01-08T14:10:29.282Z,81.44
2023-01-08T14:13:05.977Z,81.40
2023-01-08T14:15:35.575Z,81.43
2023-01-08T14:18:05.304Z,81.59
2023-01-08T14:20:35.319Z,81.69
2023-01-08T14:23:11.069Z,81.70
2023-01-08T14:25:41.295Z,81.80
2023-01-08T14:28:17.572Z,81.51
2023-01-08T14:30:50.037Z,81.31
2023-01-08T14:33:22.295Z,81.03
2023-01-08T14:35:51.598Z,81.27
2023-01-08T14:38:19.997Z,81.63
2023-01-08T14:40:57.685Z,81.70
2023-01-08T14:43:26.256Z,81.91
2023-01-08T14:45:55.137Z,81.82
2023-01-08T14:48:29.129Z,81.86
2023-01-08T14:51:04.702Z,81.88
2023-01-08T14:53:36.556Z,82.05
2023-01-08T14:56:07.095Z,82.07
2023-01-08T14:58:39.965Z,81.90
2023-01-08T15:01:15.792Z,81.68
2023-01-08T15:03:45.914Z,81.46
2023-01-08T15:06:24.850Z,81.83
2023-01-08T15:08:53.717Z,81.99
2023-01-08T15:11:23.816Z,82.00
2023-01-08T15:13:53.548Z,82.25
2023-01-08T15:16:28.975Z,82.43
2023-01-08T15:19:05.136Z,82.18
2023-01-08T15:21:34.413Z,81.84
2023-01-08T15:24:04.561Z,81.88
2023-01-08T15:26:33.500Z,82.44
2023-01-08T15:29:04.749Z,82.79
2023-01-08T15:31:45.292Z,82.93
2023-01-08T15:34:13.921Z,83.31
2023-01-08T15:36:42.071Z,83.33
2023-01-08T15:39:10.475Z,83.50
2023-01-08T15:41:57.967Z,83.73
2023-01-08T15:44:26.246Z,83.60
2023-01-08T15:46:54.760Z,83.51
2023-01-08T15:49:23.137Z,83.71
2023-01-08T15:51:52.485Z,83.81
2023-01-08T15:54:24.276Z,83.42
2023-01-08T15:56:52.585Z,83.15
2023-01-08T15:59:20.981Z,83.07
2023-01-08T16:01:49.329Z,83.60
2023-01-08T16:04:17.681Z,83.48
2023-01-08T16:06:45.987Z,82.66
2023-01-08T16:09:14.350Z,82.65
2023-01-08T16:11:42.665Z,83.29
2023-01-08T16:14:11.732Z,83.73
2023-01-08T16:16:39.974Z,83.91
2023-01-08T16:19:08.149Z,83.76
2023-01-08T16:21:36.330Z,83.71
2023-01-08T16:24:06.130Z,83.56
2023-01-08T16:26:34.480Z,83.13
2023-01-08T16:29:03.008Z,83.58
2023-01-08T16:31:31.308Z,83.47
2023-01-08T16:34:02.454Z,83.65
2023-01-08T16:36:30.923Z,83.57
2023-01-08T16:38:59.163Z,83.65
2023-01-08T16:41:27.563Z,83.75
2023-01-08T16:43:56.233Z,83.57
2023-01-08T16:46:24.691Z,83.92
2023-01-08T16:48:52.941Z,83.78
2023-01-08T16:51:21.858Z,84.23
2023-01-08T16:53:50.160Z,83.89
2023-01-08T16:56:18.534Z,83.85
2023-01-08T16:58:50.737Z,83.92
2023-01-08T17:01:19.276Z,84.20
2023-01-08T17:03:47.642Z,84.12
2023-01-08T17:06:16.182Z,84.65
2023-01-08T17:08:44.626Z,84.73
2023-01-08T17:11:14.845Z,84.69
2023-01-08T17:13:43.856Z,84.96
2023-01-08T17:16:16.779Z,84.65
2023-01-08T17:18:45.695Z,84.29
2023-01-08T17:21:14.840Z,84.50
2023-01-08T17:23:43.607Z,84.43
2023-01-08T17:26:20.286Z,84.07
2023-01-08T17:28:48.499Z,84.37
2023-01-08T17:31:18.893Z,84.17
2023-01-08T17:33:49.449Z,84.24
2023-01-08T17:36:19.531Z,84.50
2023-01-08T17:38:49.944Z,84.99
2023-01-08T17:41:33.275Z,85.16
2023-01-08T17:44:01.574Z,85.02
2023-01-08T17:46:30.235Z,85.33
2023-01-08T17:48:58.544Z,85.15
2023-01-08T17:51:27.083Z,84.83
2023-01-08T17:53:56.388Z,85.08
2023-01-08T17:56:26.400Z,84.93
2023-01-08T17:58:55.096Z,84.83
2023-01-08T18:01:23.495Z,84.92
2023-01-08T18:03:52.643Z,85.23
2023-01-08T18:06:21.858Z,85.29
2023-01-08T18:08:50.249Z,85.50
2023-01-08T18:11:18.425Z,85.20
2023-01-08T18:13:46.665Z,85.40
2023-01-08T18:16:15.238Z,85.69
2023-01-08T18:18:43.747Z,85.25
2023-01-08T18:21:12.724Z,85.49
2023-01-08T18:23:42.296Z,85.18
2023-01-08T18:26:12.367Z,84.99
2023-01-08T18:28:41.477Z,85.10
2023-01-08T18:31:11.145Z,84.96
2023-01-08T18:33:40.830Z,84.55
2023-01-08T18:36:11.791Z,84.80
2023-01-08T18:38:42.048Z,84.89
2023-01-08T18:41:33.615Z,85.15
2023-01-08T18:44:03.284Z,85.31
2023-01-08T18:46:33.895Z,85.31
2023-01-08T18:49:04.528Z,85.57
2023-01-08T18:51:33.281Z,85.56
2023-01-08T18:54:03.964Z,85.47
2023-01-08T18:56:34.526Z,85.30
2023-01-08T18:59:04.926Z,85.09
2023-01-08T19:01:34.564Z,84.99
2023-01-08T19:04:03.276Z,85.02
2023-01-08T19:06:31.603Z,85.40
2023-01-08T19:09:00.290Z,85.29
2023-01-08T19:11:28.659Z,85.31
2023-01-08T19:13:57.503Z,84.91
2023-01-08T19:16:26.260Z,84.83
2023-01-08T19:18:58.177Z,84.96
2023-01-08T19:21:27.929Z,84.81
2023-01-08T19:23:56.333Z,84.71
2023-01-08T19:26:25.193Z,84.70
2023-01-08T19:28:54.082Z,84.41
2023-01-08T19:31:23.070Z,84.73
2023-01-08T19:33:52.216Z,84.73
2023-01-08T19:36:20.764Z,84.68
2023-01-08T19:38:49.216Z,84.64
2023-01-08T19:41:51.309Z,84.77
2023-01-08T19:44:18.704Z,84.29
2023-01-08T19:46:47.124Z,84.25
2023-01-08T19:49:15.398Z,84.37
2023-01-08T19:51:43.751Z,84.69
2023-01-08T19:54:12.605Z,84.72
2023-01-08T19:56:41.101Z,85.04
2023-01-08T19:59:10.878Z,84.81
2023-01-08T20:01:40.546Z,84.41
2023-01-08T20:04:12.374Z,84.97
2023-01-08T20:06:40.912Z,85.14
2023-01-08T20:09:09.381Z,85.02
2023-01-08T20:11:38.135Z,85.44
2023-01-08T20:14:06.901Z,85.74
2023-01-08T20:16:35.378Z,85.69
2023-01-08T20:19:04.315Z,85.79
2023-01-08T20:21:33.853Z,86.07
2023-01-08T20:24:06.323Z,86.00
2023-01-08T20:26:36.758Z,86.09
2023-01-08T20:29:05.736Z,86.29
2023-01-08T20:31:35.396Z,86.34
2023-01-08T20:34:05.855Z,86.22
2023-01-08T20:36:36.157Z,86.11
2023-01-08T20:39:06.734Z,85.37
2023-01-08T20:41:35.621Z,84.88
2023-01-08T20:44:05.993Z,85.56
2023-01-08T20:46:36.143Z,85.81
2023-01-08T20:49:06.770Z,86.02
2023-01-08T20:51:36.671Z,86.28
2023-01-08T20:54:07.513Z,86.23
2023-01-08T20:56:35.999Z,86.58
2023-01-08T20:59:04.588Z,86.51
2023-01-08T21:01:33.532Z,86.22
2023-01-08T21:04:03.600Z,85.86
2023-01-08T21:06:33.281Z,86.07
2023-01-08T21:09:21.280Z,86.02
2023-01-08T21:11:53.839Z,86.16
2023-01-08T21:14:22.270Z,86.47
2023-01-08T21:16:50.587Z,86.69
2023-01-08T21:19:18.867Z,86.35
2023-01-08T21:21:47.112Z,86.67
2023-01-08T21:24:15.550Z,86.26
2023-01-08T21:26:44.744Z,86.15
2023-01-08T21:29:13.989Z,85.96
2023-01-08T21:31:42.488Z,85.82
2023-01-08T21:34:11.100Z,85.68
2023-01-08T21:36:39.429Z,85.55
2023-01-08T21:39:07.810Z,85.79
2023-01-08T21:41:50.653Z,86.66
2023-01-08T21:44:39.229Z,86.76
2023-01-08T21:47:09.470Z,87.02
2023-01-08T21:49:38.037Z,86.66
2023-01-08T21:52:24.965Z,86.49
2023-01-08T21:54:53.519Z,86.48
2023-01-08T21:57:25.100Z,86.77
2023-01-08T21:59:55.534Z,87.14
2023-01-08T22:02:24.245Z,87.36
2023-01-08T22:04:55.552Z,87.23
2023-01-08T22:07:23.911Z,86.77
2023-01-08T22:09:52.211Z,87.05
2023-01-08T22:12:21.957Z,87.03
2023-01-08T22:14:52.801Z,87.36
2023-01-08T22:17:21.267Z,87.65
2023-01-08T22:19:49.796Z,87.67
2023-01-08T22:22:18.187Z,87.61
2023-01-08T22:24:46.384Z,87.69
2023-01-08T22:27:14.652Z,87.72
2023-01-08T22:29:42.866Z,87.95
2023-01-08T22:32:11.215Z,87.69
2023-01-08T22:34:39.596Z,87.72
2023-01-08T22:37:07.835Z,87.99
2023-01-08T22:39:36.149Z,87.87
2023-01-08T22:42:04.867Z,88.26
2023-01-08T22:44:33.271Z,88.31
2023-01-08T22:47:02.023Z,88.30
2023-01-08T22:49:30.244Z,88.11
2023-01-08T22:51:58.469Z,87.82
2023-01-08T22:54:26.826Z,87.61
2023-01-08T22:56:55.021Z,87.85
2023-01-08T22:59:23.267Z,88.04
2023-01-08T23:01:51.458Z,88.10
2023-01-08T23:04:19.705Z,87.90
2023-01-08T23:06:48.193Z,88.11
2023-01-08T23:09:16.673Z,87.98
2023-01-08T23:11:44.853Z,87.97
2023-01-08T23:14:14.937Z,87.79
2023-01-08T23:16:43.324Z,88.04
2023-01-08T23:19:11.901Z,88.38
2023-01-08T23:21:40.128Z,88.04
2023-01-08T23:24:12.837Z,88.14
2023-01-08T23:26:41.573Z,87.92
2023-01-08T23:29:10.217Z,87.93
2023-01-08T23:31:38.469Z,87.90
2023-01-08T23:34:06.978Z,87.84
2023-01-08T23:36:35.442Z,87.61
2023-01-08T23:39:04.748Z,87.68
2023-01-08T23:41:34.985Z,87.81
2023-01-08T23:44:05.690Z,87.86
2023-01-08T23:46:34.258Z,88.02
2023-01-08T23:49:02.544Z,87.95
2023-01-08T23:51:30.818Z,87.89
2023-01-08T23:53:59.170Z,88.11
2023-01-08T23:56:27.715Z,88.12
2023-01-08T23:58:56.590Z,88.12
